sensor_id;sensor_type;location;lat;lon;timestamp;pressure;altitude;pressure_sealevel;temperature;humidity
24825;BME280;12910;57.690;11.974;2023-02-15T00:00:23;102224.31;;;3.37;100.00
24825;BME280;12910;57.690;11.974;2023-02-15T00:02:48;102223.53;;;3.38;100.00
24825;BME280;12910;57.690;11.974;2023-02-15T00:05:13;102210.63;;;3.35;100.00
24825;BME280;12910;57.690;11.974;2023-02-15T00:07:39;102212.41;;;3.36;100.00
24825;BME280;12910;57.690;11.974;2023-02-15T00:10:05;102210.63;;;3.35;100.00
24825;BME280;12910;57.690;11.974;2023-02-15T00:12:31;102195.53;;;3.25;100.00
24825;BME280;12910;57.690;11.974;2023-02-15T00:14:56;102179.69;;;3.16;100.00
24825;BME280;12910;57.690;11.974;2023-02-15T00:17:21;102200.25;;;3.32;100.00
24825;BME280;12910;57.690;11.974;2023-02-15T00:19:47;102202.03;;;3.33;100.00
24825;BME280;12910;57.690;11.974;2023-02-15T00:22:12;102195.88;;;3.30;100.00
24825;BME280;12910;57.690;11.974;2023-02-15T00:24:38;102199.41;;;3.20;100.00
24825;BME280;12910;57.690;11.974;2023-02-15T00:27:03;102191.91;;;3.21;100.00
24825;BME280;12910;57.690;11.974;2023-02-15T00:29:29;102190.38;;;3.23;100.00
24825;BME280;12910;57.690;11.974;2023-02-15T00:31:54;102189.94;;;3.29;100.00
24825;BME280;12910;57.690;11.974;2023-02-15T00:34:25;102191.38;;;3.25;100.00
24825;BME280;12910;57.690;11.974;2023-02-15T00:36:51;102188.84;;;3.25;100.00
24825;BME280;12910;57.690;11.974;2023-02-15T00:39:17;102181.09;;;3.24;100.00
24825;BME280;12910;57.690;11.974;2023-02-15T00:41:43;102176.69;;;3.21;100.00
24825;BME280;12910;57.690;11.974;2023-02-15T00:44:09;102189.47;;;3.23;100.00
24825;BME280;12910;57.690;11.974;2023-02-15T00:46:34;102173.31;;;3.21;100.00
24825;BME280;12910;57.690;11.974;2023-02-15T00:49:00;102165.34;;;3.04;100.00
24825;BME280;12910;57.690;11.974;2023-02-15T00:51:25;102181.53;;;3.18;100.00
24825;BME280;12910;57.690;11.974;2023-02-15T00:53:51;102191.69;;;3.18;100.00
24825;BME280;12910;57.690;11.974;2023-02-15T00:56:16;102179.25;;;3.21;100.00
24825;BME280;12910;57.690;11.974;2023-02-15T00:58:42;102185.53;;;3.26;100.00
24825;BME280;12910;57.690;11.974;2023-02-15T01:01:13;102174.81;;;3.31;100.00
24825;BME280;12910;57.690;11.974;2023-02-15T01:03:39;102177.25;;;3.29;100.00
24825;BME280;12910;57.690;11.974;2023-02-15T01:06:07;102168.56;;;3.25;100.00
24825;BME280;12910;57.690;11.974;2023-02-15T01:08:32;102157.34;;;3.22;100.00
24825;BME280;12910;57.690;11.974;2023-02-15T01:11:04;102162.59;;;3.25;100.00
24825;BME280;12910;57.690;11.974;2023-02-15T01:13:30;102142.34;;;3.13;100.00
24825;BME280;12910;57.690;11.974;2023-02-15T01:15:55;102140.91;;;3.05;100.00
24825;BME280;12910;57.690;11.974;2023-02-15T01:18:21;102141.00;;;3.06;100.00
24825;BME280;12910;57.690;11.974;2023-02-15T01:20:47;102140.66;;;3.14;100.00
24825;BME280;12910;57.690;11.974;2023-02-15T01:23:13;102151.03;;;3.17;100.00
24825;BME280;12910;57.690;11.974;2023-02-15T01:25:38;102131.22;;;3.11;100.00
24825;BME280;12910;57.690;11.974;2023-02-15T01:28:04;102143.22;;;3.14;100.00
24825;BME280;12910;57.690;11.974;2023-02-15T01:30:30;102135.75;;;3.15;100.00
24825;BME280;12910;57.690;11.974;2023-02-15T01:32:55;102132.31;;;3.15;100.00
24825;BME280;12910;57.690;11.974;2023-02-15T01:35:20;102125.59;;;3.15;100.00
24825;BME280;12910;57.690;11.974;2023-02-15T01:37:46;102125.28;;;3.10;100.00
24825;BME280;12910;57.690;11.974;2023-02-15T01:40:14;102118.78;;;3.14;100.00
24825;BME280;12910;57.690;11.974;2023-02-15T01:42:40;102115.56;;;3.17;100.00
24825;BME280;12910;57.690;11.974;2023-02-15T01:45:38;102115.78;;;3.20;100.00
24825;BME280;12910;57.690;11.974;2023-02-15T01:48:18;102115.78;;;3.20;100.00
24825;BME280;12910;57.690;11.974;2023-02-15T01:50:54;102106.97;;;3.15;100.00
24825;BME280;12910;57.690;11.974;2023-02-15T01:56:15;102091.00;;;3.16;100.00
24825;BME280;12910;57.690;11.974;2023-02-15T01:58:42;102101.47;;;3.20;100.00
24825;BME280;12910;57.690;11.974;2023-02-15T02:01:08;102100.69;;;3.21;100.00
24825;BME280;12910;57.690;11.974;2023-02-15T02:04:14;102105.84;;;3.23;100.00
24825;BME280;12910;57.690;11.974;2023-02-15T02:06:37;102105.75;;;3.21;100.00
24825;BME280;12910;57.690;11.974;2023-02-15T02:09:04;102098.72;;;3.17;100.00
24825;BME280;12910;57.690;11.974;2023-02-15T02:11:29;102091.22;;;3.19;100.00
24825;BME280;12910;57.690;11.974;2023-02-15T02:13:56;102091.44;;;3.22;100.00
24825;BME280;12910;57.690;11.974;2023-02-15T02:44:17;102049.34;;;3.24;100.00
24825;BME280;12910;57.690;11.974;2023-02-15T02:49:36;102038.56;;;3.15;100.00
24825;BME280;12910;57.690;11.974;2023-02-15T02:52:31;102047.47;;;3.21;100.00
24825;BME280;12910;57.690;11.974;2023-02-15T02:54:52;102045.72;;;3.20;100.00
24825;BME280;12910;57.690;11.974;2023-02-15T02:57:18;102036.66;;;3.24;100.00
24825;BME280;12910;57.690;11.974;2023-02-15T02:59:46;102030.09;;;3.14;100.00
24825;BME280;12910;57.690;11.974;2023-02-15T03:02:23;102036.25;;;3.18;100.00
24825;BME280;12910;57.690;11.974;2023-02-15T03:04:55;102038.78;;;3.18;100.00
24825;BME280;12910;57.690;11.974;2023-02-15T03:07:25;102029.50;;;3.18;100.00
24825;BME280;12910;57.690;11.974;2023-02-15T03:09:54;102031.50;;;3.22;100.00
24825;BME280;12910;57.690;11.974;2023-02-15T03:12:25;102020.50;;;3.22;100.00
24825;BME280;12910;57.690;11.974;2023-02-15T03:14:56;102017.97;;;3.22;100.00
24825;BME280;12910;57.690;11.974;2023-02-15T03:17:23;102015.44;;;3.22;100.00
24825;BME280;12910;57.690;11.974;2023-02-15T03:19:53;102011.00;;;3.19;100.00
24825;BME280;12910;57.690;11.974;2023-02-15T03:22:30;102020.19;;;3.17;100.00
24825;BME280;12910;57.690;11.974;2023-02-15T03:27:44;102009.06;;;3.15;100.00
24825;BME280;12910;57.690;11.974;2023-02-15T03:30:11;102013.22;;;3.15;100.00
24825;BME280;12910;57.690;11.974;2023-02-15T03:32:38;102014.00;;;3.14;100.00
24825;BME280;12910;57.690;11.974;2023-02-15T03:35:06;101999.25;;;3.08;100.00
24825;BME280;12910;57.690;11.974;2023-02-15T03:40:19;102004.75;;;3.14;100.00
24825;BME280;12910;57.690;11.974;2023-02-15T03:45:37;101999.59;;;3.13;100.00
24825;BME280;12910;57.690;11.974;2023-02-15T03:48:05;101988.25;;;3.07;100.00
24825;BME280;12910;57.690;11.974;2023-02-15T03:50:32;101973.59;;;3.03;100.00
24825;BME280;12910;57.690;11.974;2023-02-15T03:53:21;101987.81;;;3.13;100.00
24825;BME280;12910;57.690;11.974;2023-02-15T03:55:48;101991.00;;;3.10;100.00
24825;BME280;12910;57.690;11.974;2023-02-15T03:58:14;101975.59;;;3.07;100.00
24825;BME280;12910;57.690;11.974;2023-02-15T04:01:02;101978.56;;;3.02;100.00
24825;BME280;12910;57.690;11.974;2023-02-15T04:04:04;101987.06;;;3.02;100.00
24825;BME280;12910;57.690;11.974;2023-02-15T04:06:32;101979.25;;;2.99;100.00
24825;BME280;12910;57.690;11.974;2023-02-15T04:08:58;101987.06;;;3.02;100.00
24825;BME280;12910;57.690;11.974;2023-02-15T04:11:41;101997.97;;;3.01;100.00
24825;BME280;12910;57.690;11.974;2023-02-15T04:14:07;101981.69;;;2.98;100.00
24825;BME280;12910;57.690;11.974;2023-02-15T04:16:51;101972.88;;;2.92;100.00
24825;BME280;12910;57.690;11.974;2023-02-15T04:19:16;101972.78;;;2.91;100.00
24825;BME280;12910;57.690;11.974;2023-02-15T04:22:00;101972.19;;;2.95;100.00
24825;BME280;12910;57.690;11.974;2023-02-15T04:24:44;101978.03;;;2.94;100.00
24825;BME280;12910;57.690;11.974;2023-02-15T04:27:28;101971.66;;;2.99;100.00
24825;BME280;12910;57.690;11.974;2023-02-15T04:29:53;101966.91;;;3.04;100.00
24825;BME280;12910;57.690;11.974;2023-02-15T04:32:19;101958.31;;;3.02;100.00
24825;BME280;12910;57.690;11.974;2023-02-15T04:34:44;101971.56;;;2.98;100.00
24825;BME280;12910;57.690;11.974;2023-02-15T04:37:09;101960.44;;;2.95;100.00
24825;BME280;12910;57.690;11.974;2023-02-15T04:39:35;101962.28;;;2.98;100.00
24825;BME280;12910;57.690;11.974;2023-02-15T04:42:01;101954.59;;;2.96;100.00
24825;BME280;12910;57.690;11.974;2023-02-15T04:44:26;101955.47;;;2.97;100.00
24825;BME280;12910;57.690;11.974;2023-02-15T04:46:51;101951.94;;;2.95;100.00
24825;BME280;12910;57.690;11.974;2023-02-15T04:49:17;101954.47;;;2.95;100.00
24825;BME280;12910;57.690;11.974;2023-02-15T04:51:42;101964.59;;;2.95;100.00
24825;BME280;12910;57.690;11.974;2023-02-15T04:54:07;101958.25;;;2.88;100.00
24825;BME280;12910;57.690;11.974;2023-02-15T04:56:33;101936.38;;;2.77;100.00
24825;BME280;12910;57.690;11.974;2023-02-15T04:59:00;101947.22;;;2.88;100.00
24825;BME280;12910;57.690;11.974;2023-02-15T05:01:25;101943.72;;;2.86;100.00
24825;BME280;12910;57.690;11.974;2023-02-15T05:03:51;101935.34;;;2.87;100.00
24825;BME280;12910;57.690;11.974;2023-02-15T05:06:16;101947.88;;;2.97;100.00
24825;BME280;12910;57.690;11.974;2023-02-15T05:08:42;101936.09;;;2.98;100.00
24825;BME280;12910;57.690;11.974;2023-02-15T05:11:07;101923.00;;;2.91;100.00
24825;BME280;12910;57.690;11.974;2023-02-15T05:13:32;101930.72;;;2.93;100.00
24825;BME280;12910;57.690;11.974;2023-02-15T05:15:58;101921.03;;;2.87;100.00
24825;BME280;12910;57.690;11.974;2023-02-15T05:18:23;101931.81;;;2.85;100.00
24825;BME280;12910;57.690;11.974;2023-02-15T05:20:49;101911.91;;;2.77;100.00
24825;BME280;12910;57.690;11.974;2023-02-15T05:23:14;101919.97;;;2.84;100.00
24825;BME280;12910;57.690;11.974;2023-02-15T05:25:40;101924.03;;;2.82;100.00
24825;BME280;12910;57.690;11.974;2023-02-15T05:28:26;101939.78;;;2.77;100.00
24825;BME280;12910;57.690;11.974;2023-02-15T05:31:10;101941.00;;;2.83;100.00
24825;BME280;12910;57.690;11.974;2023-02-15T05:33:37;101939.09;;;2.80;100.00
24825;BME280;12910;57.690;11.974;2023-02-15T05:36:03;101934.28;;;2.71;100.00
24825;BME280;12910;57.690;11.974;2023-02-15T05:38:29;101935.16;;;2.72;100.00
24825;BME280;12910;57.690;11.974;2023-02-15T05:40:54;101938.69;;;2.74;100.00
24825;BME280;12910;57.690;11.974;2023-02-15T05:43:20;101941.53;;;2.78;100.00
24825;BME280;12910;57.690;11.974;2023-02-15T05:45:53;101931.84;;;2.73;100.00
24825;BME280;12910;57.690;11.974;2023-02-15T05:48:20;101932.75;;;2.73;100.00
24825;BME280;12910;57.690;11.974;2023-02-15T05:50:46;101925.94;;;2.72;100.00
24825;BME280;12910;57.690;11.974;2023-02-15T05:53:11;101934.63;;;2.76;100.00
24825;BME280;12910;57.690;11.974;2023-02-15T05:55:38;101916.34;;;2.68;100.00
24825;BME280;12910;57.690;11.974;2023-02-15T05:58:04;101908.13;;;2.59;100.00
24825;BME280;12910;57.690;11.974;2023-02-15T06:00:29;101918.88;;;2.68;100.00
24825;BME280;12910;57.690;11.974;2023-02-15T06:02:54;101922.94;;;2.66;100.00
24825;BME280;12910;57.690;11.974;2023-02-15T06:05:20;101915.16;;;2.63;100.00
24825;BME280;12910;57.690;11.974;2023-02-15T06:07:45;101918.56;;;2.63;100.00
24825;BME280;12910;57.690;11.974;2023-02-15T06:10:11;101910.56;;;2.57;100.00
24825;BME280;12910;57.690;11.974;2023-02-15T06:12:36;101923.72;;;2.65;100.00
24825;BME280;12910;57.690;11.974;2023-02-15T06:15:02;101908.34;;;2.62;100.00
24825;BME280;12910;57.690;11.974;2023-02-15T06:17:28;101913.59;;;2.65;100.00
24825;BME280;12910;57.690;11.974;2023-02-15T06:19:53;101917.03;;;2.65;100.00
24825;BME280;12910;57.690;11.974;2023-02-15T06:22:19;101918.47;;;2.62;100.00
24825;BME280;12910;57.690;11.974;2023-02-15T06:24:45;101911.53;;;2.59;100.00
24825;BME280;12910;57.690;11.974;2023-02-15T06:27:11;101899.34;;;2.54;100.00
24825;BME280;12910;57.690;11.974;2023-02-15T06:29:36;101895.59;;;2.48;100.00
24825;BME280;12910;57.690;11.974;2023-02-15T06:32:02;101913.09;;;2.57;100.00
24825;BME280;12910;57.690;11.974;2023-02-15T06:34:27;101908.13;;;2.59;100.00
24825;BME280;12910;57.690;11.974;2023-02-15T06:36:52;101904.81;;;2.60;100.00
24825;BME280;12910;57.690;11.974;2023-02-15T06:39:18;101893.94;;;2.61;100.00
24825;BME280;12910;57.690;11.974;2023-02-15T06:41:43;101902.59;;;2.64;100.00
24825;BME280;12910;57.690;11.974;2023-02-15T06:44:08;101882.72;;;2.57;100.00
24825;BME280;12910;57.690;11.974;2023-02-15T06:46:34;101905.69;;;2.72;100.00
24825;BME280;12910;57.690;11.974;2023-02-15T06:48:59;101883.03;;;2.62;100.00
24825;BME280;12910;57.690;11.974;2023-02-15T06:51:25;101902.38;;;2.73;100.00
24825;BME280;12910;57.690;11.974;2023-02-15T06:53:50;101898.41;;;2.65;100.00
24825;BME280;12910;57.690;11.974;2023-02-15T06:56:15;101904.91;;;2.73;100.00
24825;BME280;12910;57.690;11.974;2023-02-15T06:58:41;101904.91;;;2.73;100.00
24825;BME280;12910;57.690;11.974;2023-02-15T07:01:07;101901.38;;;2.71;100.00
24825;BME280;12910;57.690;11.974;2023-02-15T07:03:34;101894.34;;;2.67;100.00
24825;BME280;12910;57.690;11.974;2023-02-15T07:06:01;101901.47;;;2.73;100.00
24825;BME280;12910;57.690;11.974;2023-02-15T07:08:27;101897.84;;;2.69;100.00
24825;BME280;12910;57.690;11.974;2023-02-15T07:10:53;101898.84;;;2.71;100.00
24825;BME280;12910;57.690;11.974;2023-02-15T07:13:20;101902.38;;;2.73;100.00
24825;BME280;12910;57.690;11.974;2023-02-15T07:15:46;101900.72;;;2.74;100.00
24825;BME280;12910;57.690;11.974;2023-02-15T07:18:12;101900.63;;;2.72;100.00
24825;BME280;12910;57.690;11.974;2023-02-15T07:20:38;101904.59;;;2.69;100.00
24825;BME280;12910;57.690;11.974;2023-02-15T07:23:04;101890.81;;;2.65;100.00
24825;BME280;12910;57.690;11.974;2023-02-15T07:25:30;101894.78;;;2.61;100.00
24825;BME280;12910;57.690;11.974;2023-02-15T07:27:56;101883.03;;;2.62;100.00
24825;BME280;12910;57.690;11.974;2023-02-15T07:30:22;101892.47;;;2.64;100.00
24825;BME280;12910;57.690;11.974;2023-02-15T07:32:47;101898.31;;;2.63;100.00
24825;BME280;12910;57.690;11.974;2023-02-15T07:35:32;101891.41;;;2.61;100.00
24825;BME280;12910;57.690;11.974;2023-02-15T07:37:57;101889.63;;;2.60;100.00
24825;BME280;12910;57.690;11.974;2023-02-15T07:40:23;101890.84;;;2.53;100.00
24825;BME280;12910;57.690;11.974;2023-02-15T07:42:49;101882.19;;;2.38;100.00
24825;BME280;12910;57.690;11.974;2023-02-15T07:45:16;101887.91;;;2.47;100.00
24825;BME280;12910;57.690;11.974;2023-02-15T07:47:42;101889.13;;;2.40;100.00
24825;BME280;12910;57.690;11.974;2023-02-15T07:50:07;101889.34;;;2.43;100.00
24825;BME280;12910;57.690;11.974;2023-02-15T07:52:33;101859.88;;;2.32;100.00
24825;BME280;12910;57.690;11.974;2023-02-15T07:54:58;101882.41;;;2.53;100.00
24825;BME280;12910;57.690;11.974;2023-02-15T07:57:23;101872.38;;;2.54;100.00
24825;BME280;12910;57.690;11.974;2023-02-15T07:59:49;101877.66;;;2.57;100.00
24825;BME280;12910;57.690;11.974;2023-02-15T08:02:14;101871.59;;;2.55;100.00
24825;BME280;12910;57.690;11.974;2023-02-15T08:04:39;101865.84;;;2.58;100.00
24825;BME280;12910;57.690;11.974;2023-02-15T08:07:05;101868.94;;;2.65;100.00
24825;BME280;12910;57.690;11.974;2023-02-15T08:09:30;101859.56;;;2.64;100.00
24825;BME280;12910;57.690;11.974;2023-02-15T08:11:55;101854.59;;;2.66;100.00
24825;BME280;12910;57.690;11.974;2023-02-15T08:14:21;101853.66;;;2.64;100.00
24825;BME280;12910;57.690;11.974;2023-02-15T08:16:51;101848.78;;;2.67;100.00
24825;BME280;12910;57.690;11.974;2023-02-15T08:19:19;101843.41;;;2.62;100.00
24825;BME280;12910;57.690;11.974;2023-02-15T08:21:48;101842.72;;;2.65;100.00
24825;BME280;12910;57.690;11.974;2023-02-15T08:24:15;101841.00;;;2.64;100.00
24825;BME280;12910;57.690;11.974;2023-02-15T08:26:41;101840.63;;;2.71;100.00
24825;BME280;12910;57.690;11.974;2023-02-15T08:29:09;101834.78;;;2.72;100.00
24825;BME280;12910;57.690;11.974;2023-02-15T08:31:34;101822.91;;;2.71;100.00
24825;BME280;12910;57.690;11.974;2023-02-15T08:34:00;101806.00;;;2.58;100.00
24825;BME280;12910;57.690;11.974;2023-02-15T08:36:28;101823.22;;;2.76;100.00
24825;BME280;12910;57.690;11.974;2023-02-15T08:38:56;101819.78;;;2.75;100.00
24825;BME280;12910;57.690;11.974;2023-02-15T08:41:34;101820.22;;;2.82;100.00
24825;BME280;12910;57.690;11.974;2023-02-15T08:44:01;101816.25;;;2.85;100.00
24825;BME280;12910;57.690;11.974;2023-02-15T08:46:30;101816.31;;;2.87;100.00
24825;BME280;12910;57.690;11.974;2023-02-15T08:48:56;101809.50;;;2.86;100.00
24825;BME280;12910;57.690;11.974;2023-02-15T08:51:23;101808.16;;;2.91;100.00
24825;BME280;12910;57.690;11.974;2023-02-15T08:53:51;101797.16;;;2.90;100.00
24825;BME280;12910;57.690;11.974;2023-02-15T08:56:19;101800.44;;;2.89;100.00
24825;BME280;12910;57.690;11.974;2023-02-15T08:58:45;101794.75;;;2.92;100.00
24825;BME280;12910;57.690;11.974;2023-02-15T09:01:13;101794.34;;;2.99;100.00
24825;BME280;12910;57.690;11.974;2023-02-15T09:03:43;101796.59;;;2.94;100.00
24825;BME280;12910;57.690;11.974;2023-02-15T09:06:09;101796.38;;;2.91;100.00
24825;BME280;12910;57.690;11.974;2023-02-15T09:08:34;101785.25;;;2.89;100.00
24825;BME280;12910;57.690;11.974;2023-02-15T09:11:15;101784.91;;;2.96;100.00
24825;BME280;12910;57.690;11.974;2023-02-15T09:13:47;101775.03;;;2.88;100.00
24825;BME280;12910;57.690;11.974;2023-02-15T09:16:13;101777.97;;;2.94;100.00
24825;BME280;12910;57.690;11.974;2023-02-15T09:18:38;101784.22;;;2.99;100.00
24825;BME280;12910;57.690;11.974;2023-02-15T09:21:09;101773.19;;;2.99;100.00
24825;BME280;12910;57.690;11.974;2023-02-15T09:23:35;101769.81;;;2.98;100.00
24825;BME280;12910;57.690;11.974;2023-02-15T09:26:05;101769.03;;;2.99;100.00
24825;BME280;12910;57.690;11.974;2023-02-15T09:28:31;101773.13;;;2.97;100.00
24825;BME280;12910;57.690;11.974;2023-02-15T09:31:07;101760.91;;;2.91;100.00
24825;BME280;12910;57.690;11.974;2023-02-15T09:33:34;101757.69;;;2.94;100.00
24825;BME280;12910;57.690;11.974;2023-02-15T09:36:00;101755.59;;;3.00;100.00
24825;BME280;12910;57.690;11.974;2023-02-15T09:38:26;101763.28;;;3.02;100.00
24825;BME280;12910;57.690;11.974;2023-02-15T09:43:45;101758.22;;;3.02;100.00
24825;BME280;12910;57.690;11.974;2023-02-15T09:49:16;101748.56;;;2.96;100.00
24825;BME280;12910;57.690;11.974;2023-02-15T09:51:59;101752.28;;;3.01;100.00
24825;BME280;12910;57.690;11.974;2023-02-15T09:55:00;101743.78;;;3.01;100.00
24825;BME280;12910;57.690;11.974;2023-02-15T09:57:46;101742.81;;;2.99;100.00
24825;BME280;12910;57.690;11.974;2023-02-15T10:00:22;101740.19;;;2.97;100.00
24825;BME280;12910;57.690;11.974;2023-02-15T10:08:44;101741.47;;;3.04;100.00
24825;BME280;12910;57.690;11.974;2023-02-15T10:19:26;101731.81;;;2.98;100.00
24825;BME280;12910;57.690;11.974;2023-02-15T10:22:03;101731.56;;;3.07;100.00
24825;BME280;12910;57.690;11.974;2023-02-15T10:24:46;101733.09;;;3.05;100.00
24825;BME280;12910;57.690;11.974;2023-02-15T10:27:19;101730.75;;;2.94;100.00
24825;BME280;12910;57.690;11.974;2023-02-15T10:32:47;101727.44;;;2.95;100.00
24825;BME280;12910;57.690;11.974;2023-02-15T10:38:14;101728.50;;;2.99;100.00
24825;BME280;12910;57.690;11.974;2023-02-15T10:46:34;101722.25;;;2.94;100.00
24825;BME280;12910;57.690;11.974;2023-02-15T10:54:56;101723.22;;;2.96;100.00
24825;BME280;12910;57.690;11.974;2023-02-15T10:57:39;101721.47;;;2.95;100.00
24825;BME280;12910;57.690;11.974;2023-02-15T11:00:33;101710.47;;;2.94;100.00
24825;BME280;12910;57.690;11.974;2023-02-15T11:03:23;101718.38;;;2.99;100.00
24825;BME280;12910;57.690;11.974;2023-02-15T11:06:06;101711.75;;;3.01;100.00
24825;BME280;12910;57.690;11.974;2023-02-15T11:08:44;101715.25;;;3.03;100.00
24825;BME280;12910;57.690;11.974;2023-02-15T11:11:36;101699.47;;;2.94;100.00
24825;BME280;12910;57.690;11.974;2023-02-15T11:14:17;101698.50;;;2.92;100.00
24825;BME280;12910;57.690;11.974;2023-02-15T11:16:51;101709.22;;;3.01;100.00
24825;BME280;12910;57.690;11.974;2023-02-15T11:19:38;101710.19;;;3.03;100.00
24825;BME280;12910;57.690;11.974;2023-02-15T11:22:06;101705.13;;;3.03;100.00
24825;BME280;12910;57.690;11.974;2023-02-15T11:24:40;101708.84;;;3.08;100.00
24825;BME280;12910;57.690;11.974;2023-02-15T11:32:19;101669.59;;;2.88;100.00
24825;BME280;12910;57.690;11.974;2023-02-15T11:40:33;101697.34;;;3.14;100.00
24825;BME280;12910;57.690;11.974;2023-02-15T11:43:10;101686.81;;;3.07;100.00
24825;BME280;12910;57.690;11.974;2023-02-15T11:45:40;101690.63;;;3.14;100.00
24825;BME280;12910;57.690;11.974;2023-02-15T11:48:12;101692.25;;;3.14;100.00
24825;BME280;12910;57.690;11.974;2023-02-15T11:50:38;101696.84;;;3.19;100.00
24825;BME280;12910;57.690;11.974;2023-02-15T11:53:11;101702.59;;;3.17;100.00
24825;BME280;12910;57.690;11.974;2023-02-15T11:55:37;101695.09;;;3.18;100.00
24825;BME280;12910;57.690;11.974;2023-02-15T11:58:04;101696.97;;;3.21;100.00
24825;BME280;12910;57.690;11.974;2023-02-15T12:00:37;101691.59;;;3.16;100.00
24825;BME280;12910;57.690;11.974;2023-02-15T12:03:27;101689.66;;;3.12;100.00
24825;BME280;12910;57.690;11.974;2023-02-15T12:06:00;101687.03;;;3.10;100.00
24825;BME280;12910;57.690;11.974;2023-02-15T12:08:45;101685.34;;;3.11;100.00
24825;BME280;12910;57.690;11.974;2023-02-15T12:11:18;101669.88;;;3.06;100.00
24825;BME280;12910;57.690;11.974;2023-02-15T12:14:02;101673.59;;;3.11;100.00
24825;BME280;12910;57.690;11.974;2023-02-15T12:16:32;101672.59;;;3.09;100.00
24825;BME280;12910;57.690;11.974;2023-02-15T12:19:00;101668.31;;;3.08;100.00
24825;BME280;12910;57.690;11.974;2023-02-15T12:21:30;101665.88;;;3.10;100.00
24825;BME280;12910;57.690;11.974;2023-02-15T12:27:06;101669.19;;;3.09;100.00
24825;BME280;12910;57.690;11.974;2023-02-15T12:29:45;101664.88;;;3.08;100.00
24825;BME280;12910;57.690;11.974;2023-02-15T12:32:23;101659.03;;;3.09;100.00
24825;BME280;12910;57.690;11.974;2023-02-15T12:34:50;101664.31;;;3.12;100.00
24825;BME280;12910;57.690;11.974;2023-02-15T12:37:25;101657.69;;;3.14;100.00
24825;BME280;12910;57.690;11.974;2023-02-15T12:39:59;101642.69;;;3.04;100.00
24825;BME280;12910;57.690;11.974;2023-02-15T12:42:27;101638.88;;;2.97;100.00
24825;BME280;12910;57.690;11.974;2023-02-15T12:45:00;101650.78;;;3.11;100.00
24825;BME280;12910;57.690;11.974;2023-02-15T12:47:29;101659.53;;;3.17;100.00
24825;BME280;12910;57.690;11.974;2023-02-15T12:50:12;101655.53;;;3.20;100.00
24825;BME280;12910;57.690;11.974;2023-02-15T12:52:45;101644.41;;;3.18;100.00
24825;BME280;12910;57.690;11.974;2023-02-15T12:55:26;101643.56;;;3.18;100.00
24825;BME280;12910;57.690;11.974;2023-02-15T12:58:19;101637.09;;;3.23;100.00
24825;BME280;12910;57.690;11.974;2023-02-15T13:00:46;101632.66;;;3.19;100.00
24825;BME280;12910;57.690;11.974;2023-02-15T13:03:21;101639.28;;;3.30;100.00
24825;BME280;12910;57.690;11.974;2023-02-15T13:05:53;101610.25;;;3.11;100.00
24825;BME280;12910;57.690;11.974;2023-02-15T13:08:33;101630.91;;;3.18;100.00
24825;BME280;12910;57.690;11.974;2023-02-15T13:13:33;101630.31;;;3.22;100.00
24825;BME280;12910;57.690;11.974;2023-02-15T13:16:11;101619.78;;;3.16;100.00
24825;BME280;12910;57.690;11.974;2023-02-15T13:18:43;101603.22;;;3.07;100.00
24825;BME280;12910;57.690;11.974;2023-02-15T13:21:18;101622.13;;;3.26;100.00
24825;BME280;12910;57.690;11.974;2023-02-15T13:23:51;101614.72;;;3.29;100.00
24825;BME280;12910;57.690;11.974;2023-02-15T13:26:20;101617.94;;;3.26;100.00
24825;BME280;12910;57.690;11.974;2023-02-15T13:28:53;101611.00;;;3.24;100.00
24825;BME280;12910;57.690;11.974;2023-02-15T13:31:23;101608.88;;;3.17;100.00
24825;BME280;12910;57.690;11.974;2023-02-15T13:33:54;101601.63;;;3.23;100.00
24825;BME280;12910;57.690;11.974;2023-02-15T13:36:34;101596.69;;;3.24;100.00
24825;BME280;12910;57.690;11.974;2023-02-15T13:41:56;101589.25;;;3.27;100.00
24825;BME280;12910;57.690;11.974;2023-02-15T13:44:47;101586.84;;;3.29;100.00
24825;BME280;12910;57.690;11.974;2023-02-15T13:47:41;101591.72;;;3.26;100.00
24825;BME280;12910;57.690;11.974;2023-02-15T13:50:15;101589.38;;;3.29;100.00
24825;BME280;12910;57.690;11.974;2023-02-15T14:01:09;101577.97;;;3.36;100.00
24825;BME280;12910;57.690;11.974;2023-02-15T14:03:44;101580.56;;;3.37;100.00
24825;BME280;12910;57.690;11.974;2023-02-15T14:06:30;101579.59;;;3.35;100.00
24825;BME280;12910;57.690;11.974;2023-02-15T14:17:25;101550.66;;;3.32;100.00
24825;BME280;12910;57.690;11.974;2023-02-15T14:22:35;101544.75;;;3.31;100.00
24825;BME280;12910;57.690;11.974;2023-02-15T14:28:06;101561.44;;;3.42;100.00
24825;BME280;12910;57.690;11.974;2023-02-15T14:30:37;101553.75;;;3.41;100.00
24825;BME280;12910;57.690;11.974;2023-02-15T14:33:33;101546.16;;;3.41;100.00
24825;BME280;12910;57.690;11.974;2023-02-15T14:36:00;101549.56;;;3.41;100.00
24825;BME280;12910;57.690;11.974;2023-02-15T14:41:17;101526.19;;;3.32;100.00
24825;BME280;12910;57.690;11.974;2023-02-15T14:44:05;101531.66;;;3.38;100.00
24825;BME280;12910;57.690;11.974;2023-02-15T14:46:46;101525.69;;;3.38;100.00
24825;BME280;12910;57.690;11.974;2023-02-15T14:49:46;101519.75;;;3.37;100.00
24825;BME280;12910;57.690;11.974;2023-02-15T14:52:12;101511.97;;;3.34;100.00
24825;BME280;12910;57.690;11.974;2023-02-15T14:59:54;101506.19;;;3.37;100.00
24825;BME280;12910;57.690;11.974;2023-02-15T15:05:35;101504.75;;;3.40;100.00
24825;BME280;12910;57.690;11.974;2023-02-15T15:08:34;101498.09;;;3.42;100.00